Time,TemperatureF,DewpointF,PressureIn,WindDirection,WindDirectionDegrees,WindSpeedMPH,WindSpeedGustMPH,Humidity,HourlyPrecipIn,Conditions,Clouds,dailyrainin,SoftwareType,DateUTC
2013-02-18 00:05:00,34.3,24.6,29.96,SE,126,0.0,0.0,67,0.00,,SKC,0.00,VWS V13.01,2013-02-18 08:05:00,
2013-02-18 00:10:00,34.5,24.8,29.96,SE,127,0.0,0.0,67,0.00,,SKC,0.00,VWS V13.01,2013-02-18 08:10:00,
2013-02-18 00:15:00,34.5,25.5,29.96,SE,127,0.0,0.0,69,0.00,,SKC,0.00,VWS V13.01,2013-02-18 08:15:00,
2013-02-18 00:22:00,34.3,24.6,29.96,SE,126,0.0,0.0,67,0.00,,SKC,0.00,VWS V13.01,2013-02-18 08:22:00,
2013-02-18 00:28:00,34.2,24.4,29.96,SE,127,0.0,0.0,67,0.00,,SKC,0.00,VWS V13.01,2013-02-18 08:28:00,
2013-02-18 00:34:00,34.2,24.4,29.96,SE,126,0.0,0.0,67,0.00,,SKC,0.00,VWS V13.01,2013-02-18 08:34:00,
2013-02-18 00:40:00,33.8,24.1,29.96,SE,126,0.0,0.0,67,0.00,,SKC,0.00,VWS V13.01,2013-02-18 08:40:00,
2013-02-18 00:46:00,34.0,25.0,29.96,SE,127,0.0,0.0,69,0.00,,SKC,0.00,VWS V13.01,2013-02-18 08:46:00,
2013-02-18 00:52:00,34.0,25.0,29.96,SE,127,0.0,0.0,69,0.00,,SKC,0.00,VWS V13.01,2013-02-18 08:52:00,
2013-02-18 00:58:00,33.8,24.1,29.96,SE,126,0.0,0.0,67,0.00,,SKC,0.00,VWS V13.01,2013-02-18 08:58:00,
2013-02-18 01:04:00,33.8,24.1,29.96,SE,126,0.0,0.0,67,0.00,,SKC,0.00,VWS V13.01,2013-02-18 09:04:00,
2013-02-18 01:10:00,33.8,24.8,29.96,SE,127,0.0,0.0,69,0.00,,SKC,0.00,VWS V13.01,2013-02-18 09:10:00,
2013-02-18 01:17:00,33.8,24.8,29.96,SE,127,0.0,0.0,69,0.00,,SKC,0.00,VWS V13.01,2013-02-18 09:17:00,
2013-02-18 01:23:00,33.6,24.6,29.96,SE,126,0.0,0.0,69,0.00,,SKC,0.00,VWS V13.01,2013-02-18 09:23:00,
2013-02-18 01:29:00,33.4,24.5,29.96,SE,126,0.0,0.0,69,0.00,,SKC,0.00,VWS V13.01,2013-02-18 09:29:00,
2013-02-18 01:35:00,33.3,24.3,29.96,SE,126,0.0,0.0,69,0.00,,SKC,0.00,VWS V13.01,2013-02-18 09:35:00,
2013-02-18 01:41:00,33.4,24.5,29.96,SE,127,0.0,0.0,69,0.00,,SKC,0.00,VWS V13.01,2013-02-18 09:41:00,
2013-02-18 01:47:00,33.4,24.5,29.96,SE,127,0.0,0.0,69,0.00,,SKC,0.00,VWS V13.01,2013-02-18 09:47:00,
2013-02-18 01:54:00,33.3,24.3,29.96,SE,127,0.0,0.0,69,0.00,,SKC,0.00,VWS V13.01,2013-02-18 09:54:00,
2013-02-18 02:00:00,33.1,24.1,29.96,SE,127,0.0,0.0,69,0.00,,SKC,0.00,VWS V13.01,2013-02-18 10:00:00,
2013-02-18 02:06:00,33.3,25.0,29.96,SE,126,0.0,0.0,71,0.00,,SKC,0.00,VWS V13.01,2013-02-18 10:06:00,
2013-02-18 02:12:00,33.4,25.2,29.96,SE,127,0.0,0.0,71,0.00,,SKC,0.00,VWS V13.01,2013-02-18 10:12:00,
2013-02-18 02:18:00,33.3,25.0,29.96,SE,126,0.0,0.0,71,0.00,,SKC,0.00,VWS V13.01,2013-02-18 10:18:00,
2013-02-18 02:24:00,33.3,25.0,29.96,SE,127,0.0,0.0,71,0.00,,SKC,0.00,VWS V13.01,2013-02-18 10:24:00,
2013-02-18 02:30:00,33.4,25.9,29.96,SE,127,0.0,0.0,74,0.00,,SKC,0.00,VWS V13.01,2013-02-18 10:30:00,
2013-02-18 02:36:00,33.4,25.2,29.96,SE,127,0.0,0.0,71,0.00,,SKC,0.00,VWS V13.01,2013-02-18 10:36:00,
2013-02-18 02:43:00,33.3,25.0,29.96,SE,126,0.0,0.0,71,0.00,,SKC,0.00,VWS V13.01,2013-02-18 10:43:00,
2013-02-18 02:49:00,33.1,24.9,29.96,SE,126,0.0,0.0,71,0.00,,SKC,0.00,VWS V13.01,2013-02-18 10:49:00,
2013-02-18 02:55:00,33.1,25.5,29.96,SE,126,0.0,0.0,74,0.00,,SKC,0.00,VWS V13.01,2013-02-18 10:55:00,
2013-02-18 03:01:00,33.1,25.5,29.96,SE,126,0.0,0.0,74,0.00,,SKC,0.00,VWS V13.01,2013-02-18 11:01:00,
2013-02-18 03:07:00,33.1,25.5,29.93,SE,126,0.0,0.0,74,0.00,,SKC,0.00,VWS V13.01,2013-02-18 11:07:00,
2013-02-18 03:13:00,32.9,25.4,29.93,SE,127,0.0,0.0,74,0.00,,SKC,0.00,VWS V13.01,2013-02-18 11:13:00,
2013-02-18 03:19:00,32.5,24.3,29.93,SE,126,0.0,0.0,71,0.00,,SKC,0.00,VWS V13.01,2013-02-18 11:19:00,
2013-02-18 03:25:00,32.5,24.3,29.93,SE,127,0.0,0.0,71,0.00,,SKC,0.00,VWS V13.01,2013-02-18 11:25:00,
2013-02-18 03:32:00,32.2,24.0,29.93,SE,127,0.0,0.0,71,0.00,,SKC,0.00,VWS V13.01,2013-02-18 11:32:00,
2013-02-18 03:38:00,32.4,24.9,29.93,SE,126,0.0,0.0,74,0.00,,SKC,0.00,VWS V13.01,2013-02-18 11:38:00,
2013-02-18 03:44:00,32.2,24.0,29.93,SE,126,0.0,0.0,71,0.00,,SKC,0.00,VWS V13.01,2013-02-18 11:44:00,
2013-02-18 03:50:00,31.8,23.6,29.93,SE,126,0.0,0.0,71,0.00,,SKC,0.00,VWS V13.01,2013-02-18 11:50:00,
2013-02-18 03:56:00,31.5,23.3,29.93,SE,127,0.0,0.0,71,0.00,,SKC,0.00,VWS V13.01,2013-02-18 11:56:00,
2013-02-18 04:02:00,31.5,24.0,29.93,SE,126,0.0,0.0,74,0.00,,SKC,0.00,VWS V13.01,2013-02-18 12:02:00,
2013-02-18 04:09:00,31.6,24.2,29.93,SE,127,0.0,0.0,74,0.00,,SKC,0.00,VWS V13.01,2013-02-18 12:09:00,
2013-02-18 04:15:00,31.6,24.2,29.93,SE,127,0.0,0.0,74,0.00,,SKC,0.00,VWS V13.01,2013-02-18 12:15:00,
2013-02-18 04:20:00,31.8,25.0,29.93,SE,126,0.0,0.0,76,0.00,,SKC,0.00,VWS V13.01,2013-02-18 12:20:00,
2013-02-18 04:25:00,32.0,25.2,29.93,SE,127,0.0,0.0,76,0.00,,SKC,0.00,VWS V13.01,2013-02-18 12:25:00,
2013-02-18 04:30:00,32.0,25.8,29.93,SE,126,0.0,0.0,78,0.00,,SKC,0.00,VWS V13.01,2013-02-18 12:30:00,
2013-02-18 04:35:00,31.8,25.0,29.93,SE,126,0.0,0.0,76,0.00,,SKC,0.00,VWS V13.01,2013-02-18 12:35:00,
2013-02-18 04:41:00,31.5,24.0,29.93,SE,126,0.0,0.0,74,0.00,,SKC,0.00,VWS V13.01,2013-02-18 12:41:00,
2013-02-18 04:47:00,31.3,23.8,29.93,SE,127,0.0,0.0,74,0.00,,SKC,0.00,VWS V13.01,2013-02-18 12:47:00,
2013-02-18 04:53:00,31.1,23.6,29.93,SE,127,0.0,0.0,74,0.00,,SKC,0.00,VWS V13.01,2013-02-18 12:53:00,
2013-02-18 04:59:00,31.1,23.6,29.93,SE,127,0.0,0.0,74,0.00,,SKC,0.00,VWS V13.01,2013-02-18 12:59:00,
2013-02-18 05:05:00,31.1,23.6,29.93,SE,126,0.0,0.0,74,0.00,,SKC,0.00,VWS V13.01,2013-02-18 13:05:00,
2013-02-18 05:11:00,31.1,23.6,29.93,SE,127,0.0,0.0,74,0.00,,SKC,0.00,VWS V13.01,2013-02-18 13:11:00,
2013-02-18 05:18:00,31.1,23.6,29.93,SE,127,0.0,0.0,74,0.00,,SKC,0.00,VWS V13.01,2013-02-18 13:18:00,
2013-02-18 05:24:00,31.1,23.6,29.93,SE,126,0.0,0.0,74,0.00,,SKC,0.00,VWS V13.01,2013-02-18 13:24:00,
2013-02-18 05:30:00,31.3,24.5,29.93,SE,127,0.0,0.0,76,0.00,,SKC,0.00,VWS V13.01,2013-02-18 13:30:00,
2013-02-18 05:36:00,31.5,24.6,29.93,SE,127,0.0,0.0,76,0.00,,SKC,0.00,VWS V13.01,2013-02-18 13:36:00,
2013-02-18 05:42:00,31.3,23.8,29.93,SE,126,0.0,0.0,74,0.00,,SKC,0.00,VWS V13.01,2013-02-18 13:42:00,
2013-02-18 05:48:00,31.1,24.3,29.93,SE,126,0.0,0.0,76,0.00,,SKC,0.00,VWS V13.01,2013-02-18 13:48:00,
2013-02-18 05:54:00,30.9,24.1,29.93,SE,127,0.0,0.0,76,0.00,,SKC,0.00,VWS V13.01,2013-02-18 13:54:00,
2013-02-18 06:00:00,31.1,24.3,29.93,SE,127,0.0,0.0,76,0.00,,SKC,0.00,VWS V13.01,2013-02-18 14:00:00,
2013-02-18 06:06:00,31.1,24.3,29.93,SE,126,0.0,0.0,76,0.00,,SKC,0.00,VWS V13.01,2013-02-18 14:06:00,
2013-02-18 06:12:00,31.3,24.5,29.93,SE,127,0.0,0.0,76,0.00,,SKC,0.00,VWS V13.01,2013-02-18 14:12:00,
2013-02-18 06:18:00,31.5,25.3,29.93,SE,126,0.0,0.0,78,0.00,,SKC,0.00,VWS V13.01,2013-02-18 14:18:00,
2013-02-18 06:25:00,31.8,25.7,29.93,SE,127,0.0,0.0,78,0.00,,SKC,0.00,VWS V13.01,2013-02-18 14:25:00,
2013-02-18 06:30:00,31.8,25.7,29.93,SE,127,0.0,0.0,78,0.00,,SKC,0.00,VWS V13.01,2013-02-18 14:30:00,
2013-02-18 06:35:00,31.8,25.7,29.93,SE,126,0.0,0.0,78,0.00,,SKC,0.00,VWS V13.01,2013-02-18 14:35:00,
2013-02-18 06:41:00,31.8,25.7,29.93,SE,127,0.0,0.0,78,0.00,,SKC,0.00,VWS V13.01,2013-02-18 14:41:00,
2013-02-18 06:47:00,31.8,25.7,29.93,SE,127,0.0,0.0,78,0.00,,SKC,0.00,VWS V13.01,2013-02-18 14:47:00,
2013-02-18 06:53:00,32.0,26.5,29.93,SE,127,0.0,0.0,80,0.00,,SKC,0.00,VWS V13.01,2013-02-18 14:53:00,
2013-02-18 06:59:00,32.2,26.7,29.93,SE,126,0.0,0.0,80,0.00,,SKC,0.00,VWS V13.01,2013-02-18 14:59:00,
2013-02-18 07:05:00,32.4,26.8,29.93,SE,127,0.0,0.0,80,0.00,,SKC,0.00,VWS V13.01,2013-02-18 15:05:00,
2013-02-18 07:11:00,32.7,27.2,29.93,SE,126,0.0,0.0,80,0.00,,SKC,0.00,VWS V13.01,2013-02-18 15:11:00,
2013-02-18 07:17:00,32.9,27.4,29.93,SE,126,0.0,0.0,80,0.00,,SKC,0.00,VWS V13.01,2013-02-18 15:17:00,
2013-02-18 07:24:00,33.3,27.7,29.93,SE,126,0.0,0.0,80,0.00,,SKC,0.00,VWS V13.01,2013-02-18 15:24:00,
2013-02-18 07:30:00,33.3,27.1,29.93,SE,127,0.0,0.0,78,0.00,,SKC,0.00,VWS V13.01,2013-02-18 15:30:00,
2013-02-18 07:36:00,33.4,27.9,29.93,SE,127,0.0,0.0,80,0.00,,SKC,0.00,VWS V13.01,2013-02-18 15:36:00,
2013-02-18 07:42:00,33.8,28.2,29.93,SE,127,0.0,0.0,80,0.00,,SKC,0.00,VWS V13.01,2013-02-18 15:42:00,
2013-02-18 07:50:00,34.3,28.8,29.93,SE,126,0.0,0.0,80,0.00,,SKC,0.00,VWS V13.01,2013-02-18 15:50:00,
2013-02-18 07:56:00,34.5,28.9,29.93,SE,127,0.0,0.0,80,0.00,,SKC,0.00,VWS V13.01,2013-02-18 15:56:00,
2013-02-18 08:02:00,34.7,29.1,29.96,SE,127,0.0,0.0,80,0.00,,SKC,0.00,VWS V13.01,2013-02-18 16:02:00,
2013-02-18 08:08:00,35.1,29.5,29.96,SE,126,0.0,0.0,80,0.00,,SKC,0.00,VWS V13.01,2013-02-18 16:08:00,
2013-02-18 08:15:00,35.4,29.8,29.96,SE,127,0.0,0.0,80,0.00,,SKC,0.00,VWS V13.01,2013-02-18 16:15:00,
2013-02-18 08:20:00,35.8,30.8,29.96,SE,126,0.0,0.0,82,0.00,,SKC,0.00,VWS V13.01,2013-02-18 16:20:00,
2013-02-18 08:25:00,36.1,31.2,29.96,SE,126,0.0,0.0,82,0.00,,SKC,0.00,VWS V13.01,2013-02-18 16:25:00,
2013-02-18 08:31:00,36.7,31.0,29.96,SE,126,0.0,0.0,80,0.00,,SKC,0.00,VWS V13.01,2013-02-18 16:31:00,
2013-02-18 08:37:00,37.6,32.6,29.96,SE,126,0.0,0.0,82,0.00,,SKC,0.00,VWS V13.01,2013-02-18 16:37:00,
2013-02-18 08:43:00,38.5,33.4,29.96,SE,127,0.0,0.0,82,0.00,,SKC,0.00,VWS V13.01,2013-02-18 16:43:00,
2013-02-18 08:49:00,39.7,34.7,29.96,SE,126,0.0,0.0,82,0.00,,SKC,0.00,VWS V13.01,2013-02-18 16:49:00,
2013-02-18 08:55:00,41.0,35.2,29.96,SE,127,0.0,0.0,80,0.00,,SKC,0.00,VWS V13.01,2013-02-18 16:55:00,
2013-02-18 09:01:00,42.1,36.3,29.96,SE,127,0.0,0.0,80,0.00,,SKC,0.00,VWS V13.01,2013-02-18 17:01:00,
2013-02-18 09:08:00,43.0,37.2,29.96,SE,127,0.0,0.0,80,0.00,,SKC,0.00,VWS V13.01,2013-02-18 17:08:00,
2013-02-18 09:14:00,43.9,37.4,29.96,SE,127,0.0,0.0,78,0.00,,SKC,0.00,VWS V13.01,2013-02-18 17:14:00,
2013-02-18 09:20:00,44.8,38.2,29.96,SE,127,0.0,0.0,78,0.00,,SKC,0.00,VWS V13.01,2013-02-18 17:20:00,
2013-02-18 09:26:00,45.3,37.4,29.96,SE,127,0.0,0.0,74,0.00,,SKC,0.00,VWS V13.01,2013-02-18 17:26:00,
2013-02-18 09:32:00,45.7,37.0,29.93,SE,127,0.0,0.0,71,0.00,,SKC,0.00,VWS V13.01,2013-02-18 17:32:00,
2013-02-18 09:38:00,45.9,36.4,29.93,SE,127,0.0,0.0,69,0.00,,SKC,0.00,VWS V13.01,2013-02-18 17:38:00,
2013-02-18 09:44:00,46.4,36.9,29.93,SE,127,0.0,0.0,69,0.00,,SKC,0.00,VWS V13.01,2013-02-18 17:44:00,
2013-02-18 09:50:00,46.9,36.6,29.93,SE,128,0.0,0.0,67,0.00,,SKC,0.00,VWS V13.01,2013-02-18 17:50:00,
2013-02-18 09:55:00,47.3,36.2,29.93,SE,128,0.0,0.0,65,0.00,,SKC,0.00,VWS V13.01,2013-02-18 17:55:00,
2013-02-18 10:00:00,47.8,36.7,29.93,West,268,0.0,0.0,65,0.00,,SKC,0.00,VWS V13.01,2013-02-18 18:00:00,
2013-02-18 10:05:00,48.4,37.2,29.93,West,263,0.0,0.0,65,0.00,,SKC,0.00,VWS V13.01,2013-02-18 18:05:00,
2013-02-18 10:11:00,49.1,36.2,29.93,WNW,284,0.0,0.0,61,0.00,,SKC,0.00,VWS V13.01,2013-02-18 18:11:00,
2013-02-18 10:17:00,50.2,35.4,29.93,West,272,0.0,0.0,57,0.00,,SKC,0.00,VWS V13.01,2013-02-18 18:17:00,
2013-02-18 10:23:00,50.7,35.0,29.93,West,272,0.0,0.0,55,0.00,,SKC,0.00,VWS V13.01,2013-02-18 18:23:00,
2013-02-18 10:29:00,51.4,32.6,29.93,West,268,0.0,0.0,48,0.00,,SKC,0.00,VWS V13.01,2013-02-18 18:29:00,
2013-02-18 10:35:00,52.2,31.0,29.93,West,264,0.0,0.0,44,0.00,,SKC,0.00,VWS V13.01,2013-02-18 18:35:00,
2013-02-18 10:42:00,52.9,30.4,29.93,WSW,240,0.0,0.0,42,0.00,,SKC,0.00,VWS V13.01,2013-02-18 18:42:00,
2013-02-18 10:48:00,53.2,28.2,29.93,SW,225,0.0,0.0,38,0.00,,SKC,0.00,VWS V13.01,2013-02-18 18:48:00,
2013-02-18 10:54:00,54.0,28.8,29.93,WNW,286,0.0,0.0,38,0.00,,SKC,0.00,VWS V13.01,2013-02-18 18:54:00,
2013-02-18 11:00:00,54.5,29.3,29.93,West,276,0.0,0.0,38,0.00,,SKC,0.00,VWS V13.01,2013-02-18 19:00:00,
2013-02-18 11:06:00,54.9,28.2,29.93,WSW,249,0.0,0.0,36,0.00,,SKC,0.00,VWS V13.01,2013-02-18 19:06:00,
2013-02-18 11:12:00,55.4,28.7,29.93,WSW,245,0.0,0.0,36,0.00,,SKC,0.00,VWS V13.01,2013-02-18 19:12:00,
2013-02-18 11:18:00,55.9,29.2,29.93,West,277,0.0,0.0,36,0.00,,SKC,0.00,VWS V13.01,2013-02-18 19:18:00,
2013-02-18 11:24:00,56.1,26.3,29.93,SW,232,0.0,0.0,31,0.00,,SKC,0.00,VWS V13.01,2013-02-18 19:24:00,
2013-02-18 11:30:00,56.5,25.0,29.93,WNW,293,0.0,0.0,29,0.00,,SKC,0.00,VWS V13.01,2013-02-18 19:30:00,
2013-02-18 11:36:00,56.5,25.0,29.93,WSW,258,0.0,0.0,29,0.00,,SKC,0.00,VWS V13.01,2013-02-18 19:36:00,
2013-02-18 11:43:00,56.8,25.3,29.93,NW,323,0.0,0.0,29,0.00,,SKC,0.00,VWS V13.01,2013-02-18 19:43:00,
2013-02-18 11:49:00,57.4,25.7,29.91,WSW,243,0.0,0.0,29,0.00,,SKC,0.00,VWS V13.01,2013-02-18 19:49:00,
2013-02-18 11:54:00,57.7,26.0,29.91,West,263,0.0,0.0,29,0.00,,SKC,0.00,VWS V13.01,2013-02-18 19:54:00,
2013-02-18 12:10:00,58.5,26.7,29.91,West,280,0.0,0.0,29,0.00,,SKC,0.00,VWS V13.01,2013-02-18 20:10:00,
2013-02-18 12:16:00,57.9,26.2,29.91,WSW,251,0.0,0.0,29,0.00,,FEW,0.00,VWS V13.01,2013-02-18 20:16:00,
2013-02-18 12:22:00,57.9,26.2,29.91,SW,236,0.0,0.0,29,0.00,,FEW,0.00,VWS V13.01,2013-02-18 20:22:00,
2013-02-18 12:28:00,57.7,26.0,29.91,West,264,0.0,0.0,29,0.00,,FEW,0.00,VWS V13.01,2013-02-18 20:28:00,
2013-02-18 12:34:00,57.9,26.2,29.91,WSW,247,0.0,0.0,29,0.00,,FEW,0.00,VWS V13.01,2013-02-18 20:34:00,
2013-02-18 12:40:00,58.3,26.5,29.91,WNW,286,0.0,0.0,29,0.00,,FEW,0.00,VWS V13.01,2013-02-18 20:40:00,
2013-02-18 12:45:00,58.8,27.0,29.91,West,268,0.0,0.0,29,0.00,,FEW,0.00,VWS V13.01,2013-02-18 20:45:00,
2013-02-18 12:51:00,58.8,27.0,29.91,West,276,0.0,0.0,29,0.00,,FEW,0.00,VWS V13.01,2013-02-18 20:51:00,
2013-02-18 12:57:00,58.6,26.8,29.91,NW,306,0.0,0.0,29,0.00,,FEW,0.00,VWS V13.01,2013-02-18 20:57:00,
2013-02-18 13:03:00,58.5,26.7,29.91,West,268,0.0,0.0,29,0.00,,FEW,0.00,VWS V13.01,2013-02-18 21:03:00,
2013-02-18 13:09:00,58.3,26.5,29.91,West,270,0.0,0.0,29,0.00,,FEW,0.00,VWS V13.01,2013-02-18 21:09:00,
2013-02-18 13:15:00,57.9,26.2,29.91,South,177,0.0,0.0,29,0.00,,FEW,0.00,VWS V13.01,2013-02-18 21:15:00,
2013-02-18 13:21:00,57.9,26.2,29.88,WSW,253,0.0,0.0,29,0.00,,FEW,0.00,VWS V13.01,2013-02-18 21:21:00,
2013-02-18 13:27:00,58.3,26.5,29.88,SW,219,0.0,0.0,29,0.00,,FEW,0.00,VWS V13.01,2013-02-18 21:27:00,
2013-02-18 13:33:00,58.3,26.5,29.88,West,270,0.0,0.0,29,0.00,,FEW,0.00,VWS V13.01,2013-02-18 21:33:00,
2013-02-18 13:39:00,57.9,26.2,29.88,NNW,333,0.0,0.0,29,0.00,,FEW,0.00,VWS V13.01,2013-02-18 21:39:00,
2013-02-18 13:45:00,57.7,26.0,29.88,West,267,0.0,0.0,29,0.00,,FEW,0.00,VWS V13.01,2013-02-18 21:45:00,
2013-02-18 13:51:00,58.1,26.4,29.88,SSE,151,0.0,0.0,29,0.00,,FEW,0.00,VWS V13.01,2013-02-18 21:51:00,
2013-02-18 13:58:00,58.8,27.0,29.88,West,266,0.0,0.0,29,0.00,,FEW,0.00,VWS V13.01,2013-02-18 21:58:00,
2013-02-18 14:04:00,59.2,27.3,29.88,SSW,205,0.0,0.0,29,0.00,,FEW,0.00,VWS V13.01,2013-02-18 22:04:00,
2013-02-18 14:10:00,59.4,27.5,29.88,SE,137,0.0,0.0,29,0.00,,FEW,0.00,VWS V13.01,2013-02-18 22:10:00,
2013-02-18 14:16:00,59.2,27.3,29.88,WSW,248,0.0,0.0,29,0.00,,FEW,0.00,VWS V13.01,2013-02-18 22:16:00,
2013-02-18 14:22:00,58.6,26.8,29.88,West,264,0.0,0.0,29,0.00,,FEW,0.00,VWS V13.01,2013-02-18 22:22:00,
2013-02-18 14:28:00,58.3,26.5,29.88,SSW,212,0.0,0.0,29,0.00,,FEW,0.00,VWS V13.01,2013-02-18 22:28:00,
2013-02-18 14:34:00,58.1,26.4,29.88,SW,235,0.0,0.0,29,0.00,,FEW,0.00,VWS V13.01,2013-02-18 22:34:00,
2013-02-18 14:40:00,57.9,26.2,29.88,West,265,0.0,0.0,29,0.00,,FEW,0.00,VWS V13.01,2013-02-18 22:40:00,
2013-02-18 14:46:00,57.7,26.0,29.88,SW,235,0.0,0.0,29,0.00,,FEW,0.00,VWS V13.01,2013-02-18 22:46:00,
2013-02-18 14:53:00,57.4,25.7,29.88,WSW,246,0.0,0.0,29,0.00,,FEW,0.00,VWS V13.01,2013-02-18 22:53:00,
2013-02-18 14:59:00,57.4,25.7,29.88,WSW,247,0.0,0.0,29,0.00,,FEW,0.00,VWS V13.01,2013-02-18 22:59:00,
2013-02-18 15:05:00,57.4,25.7,29.85,South,178,0.0,0.0,29,0.00,,FEW,0.00,VWS V13.01,2013-02-18 23:05:00,
2013-02-18 15:11:00,57.4,25.7,29.85,NW,326,0.0,0.0,29,0.00,,FEW,0.00,VWS V13.01,2013-02-18 23:11:00,
2013-02-18 15:17:00,57.0,25.4,29.85,SSE,164,0.0,0.0,29,0.00,,FEW,0.00,VWS V13.01,2013-02-18 23:17:00,
2013-02-18 15:23:00,56.8,25.3,29.85,South,171,0.0,0.0,29,0.00,,FEW,0.00,VWS V13.01,2013-02-18 23:23:00,
2013-02-18 15:29:00,56.7,25.1,29.85,NW,318,0.0,0.0,29,0.00,,FEW,0.00,VWS V13.01,2013-02-18 23:29:00,
2013-02-18 15:35:00,56.3,24.8,29.85,West,260,0.0,0.0,29,0.00,,FEW,0.00,VWS V13.01,2013-02-18 23:35:00,
2013-02-18 15:41:00,56.1,26.3,29.85,South,189,0.0,0.0,31,0.00,,FEW,0.00,VWS V13.01,2013-02-18 23:41:00,
2013-02-18 15:47:00,55.8,26.0,29.85,SW,231,0.0,0.0,31,0.00,,FEW,0.00,VWS V13.01,2013-02-18 23:47:00,
2013-02-18 15:53:00,55.6,25.8,29.85,WSW,255,0.0,0.0,31,0.00,,FEW,0.00,VWS V13.01,2013-02-18 23:53:00,
2013-02-18 16:00:00,55.2,25.5,29.85,SW,236,0.0,0.0,31,0.00,,FEW,0.00,VWS V13.01,2013-02-19 00:00:00,
2013-02-18 16:06:00,54.9,25.2,29.85,West,261,0.0,0.0,31,0.00,,FEW,0.00,VWS V13.01,2013-02-19 00:06:00,
2013-02-18 16:12:00,54.7,25.0,29.85,WSW,249,0.0,0.0,31,0.00,,FEW,0.00,VWS V13.01,2013-02-19 00:12:00,
2013-02-18 16:18:00,54.3,24.7,29.85,South,171,0.0,0.0,31,0.00,,FEW,0.00,VWS V13.01,2013-02-19 00:18:00,
2013-02-18 16:24:00,54.1,24.6,29.85,West,269,0.0,0.0,31,0.00,,FEW,0.00,VWS V13.01,2013-02-19 00:24:00,
2013-02-18 16:30:00,53.4,23.9,29.85,WSW,251,0.0,0.0,31,0.00,,FEW,0.00,VWS V13.01,2013-02-19 00:30:00,
2013-02-18 16:36:00,52.7,23.3,29.85,WSW,246,0.0,0.0,31,0.00,,FEW,0.00,VWS V13.01,2013-02-19 00:36:00,
2013-02-18 16:42:00,51.6,23.9,29.85,SW,233,0.0,0.0,34,0.00,,FEW,0.00,VWS V13.01,2013-02-19 00:42:00,
2013-02-18 16:48:00,50.4,26.9,29.85,West,263,0.0,0.0,40,0.00,,FEW,0.00,VWS V13.01,2013-02-19 00:48:00,
2013-02-18 16:55:00,49.1,25.8,29.85,WSW,256,0.0,0.0,40,0.00,,FEW,0.00,VWS V13.01,2013-02-19 00:55:00,
2013-02-18 17:00:00,48.6,27.7,29.85,West,272,0.0,0.0,44,0.00,,FEW,0.00,VWS V13.01,2013-02-19 01:00:00,
2013-02-18 17:05:00,47.8,27.0,29.85,WSW,257,0.0,0.0,44,0.00,,FEW,0.00,VWS V13.01,2013-02-19 01:05:00,
2013-02-18 17:11:00,47.3,29.8,29.85,West,280,0.0,0.0,50,0.00,,FEW,0.00,VWS V13.01,2013-02-19 01:11:00,
2013-02-18 17:17:00,46.9,32.4,29.85,West,259,0.0,0.0,57,0.00,,FEW,0.00,VWS V13.01,2013-02-19 01:17:00,
2013-02-18 17:23:00,46.6,32.0,29.85,WSW,247,0.0,0.0,57,0.00,,FEW,0.00,VWS V13.01,2013-02-19 01:23:00,
2013-02-18 17:29:00,46.0,31.5,29.85,West,268,0.0,0.0,57,0.00,,FEW,0.00,VWS V13.01,2013-02-19 01:29:00,
2013-02-18 17:35:00,45.5,31.0,29.85,West,260,0.0,0.0,57,0.00,,FEW,0.00,VWS V13.01,2013-02-19 01:35:00,
2013-02-18 17:41:00,45.1,31.6,29.85,WSW,247,0.0,0.0,59,0.00,,FEW,0.00,VWS V13.01,2013-02-19 01:41:00,
2013-02-18 17:47:00,45.0,31.4,29.88,WSW,244,0.0,0.0,59,0.00,,FEW,0.00,VWS V13.01,2013-02-19 01:47:00,
2013-02-18 17:54:00,44.8,31.3,29.88,West,275,0.0,0.0,59,0.00,,OVC,0.00,VWS V13.01,2013-02-19 01:54:00,
2013-02-18 18:00:00,44.6,31.1,29.88,West,279,0.0,0.0,59,0.00,,OVC,0.00,VWS V13.01,2013-02-19 02:00:00,
2013-02-18 18:06:00,44.4,30.9,29.88,West,279,0.0,0.0,59,0.00,,OVC,0.00,VWS V13.01,2013-02-19 02:06:00,
2013-02-18 18:12:00,44.4,30.9,29.88,WSW,255,0.0,0.0,59,0.00,,OVC,0.00,VWS V13.01,2013-02-19 02:12:00,
2013-02-18 18:18:00,44.4,30.9,29.88,West,271,0.0,0.0,59,0.00,,OVC,0.00,VWS V13.01,2013-02-19 02:18:00,
2013-02-18 18:24:00,44.4,30.9,29.88,West,271,0.0,0.0,59,0.00,,OVC,0.00,VWS V13.01,2013-02-19 02:24:00,
2013-02-18 18:30:00,44.2,30.8,29.88,West,271,0.0,0.0,59,0.00,,OVC,0.00,VWS V13.01,2013-02-19 02:30:00,
2013-02-18 18:36:00,44.2,30.8,29.88,West,271,0.0,0.0,59,0.00,,OVC,0.00,VWS V13.01,2013-02-19 02:36:00,
2013-02-18 18:43:00,44.1,30.6,29.88,West,271,0.0,0.0,59,0.00,,OVC,0.00,VWS V13.01,2013-02-19 02:43:00,
2013-02-18 18:49:00,44.1,30.6,29.88,West,267,0.0,0.0,59,0.00,,OVC,0.00,VWS V13.01,2013-02-19 02:49:00,
2013-02-18 18:55:00,44.1,30.6,29.88,West,267,0.0,0.0,59,0.00,,OVC,0.00,VWS V13.01,2013-02-19 02:55:00,
2013-02-18 19:01:00,44.1,30.6,29.88,West,267,0.0,0.0,59,0.00,,OVC,0.00,VWS V13.01,2013-02-19 03:01:00,
2013-02-18 19:07:00,44.1,30.6,29.88,North,0,0.0,0.0,59,0.00,,OVC,0.00,VWS V13.01,2013-02-19 03:07:00,
2013-02-18 19:14:00,44.1,30.6,29.88,North,0,0.0,0.0,59,0.00,,OVC,0.00,VWS V13.01,2013-02-19 03:14:00,
2013-02-18 19:20:00,44.2,30.8,29.88,North,0,0.0,0.0,59,0.00,,OVC,0.00,VWS V13.01,2013-02-19 03:20:00,
2013-02-18 19:26:00,44.2,30.8,29.88,North,0,0.0,0.0,59,0.00,,OVC,0.00,VWS V13.01,2013-02-19 03:26:00,
2013-02-18 19:32:00,44.2,30.8,29.85,North,0,0.0,0.0,59,0.00,,OVC,0.00,VWS V13.01,2013-02-19 03:32:00,
2013-02-18 19:38:00,44.2,30.8,29.85,NNW,335,0.0,0.0,59,0.00,,OVC,0.00,VWS V13.01,2013-02-19 03:38:00,
2013-02-18 19:44:00,44.1,30.6,29.85,NNW,335,0.0,0.0,59,0.00,,OVC,0.00,VWS V13.01,2013-02-19 03:44:00,
2013-02-18 19:52:00,44.2,30.8,29.85,NNW,335,0.0,0.0,59,0.00,,OVC,0.00,VWS V13.01,2013-02-19 03:52:00,
2013-02-18 20:00:00,44.2,30.8,29.85,NNW,335,0.0,0.0,59,0.00,,OVC,0.00,VWS V13.01,2013-02-19 04:00:00,
2013-02-18 20:07:00,44.2,30.8,29.85,NNW,335,0.0,0.0,59,0.00,,OVC,0.00,VWS V13.01,2013-02-19 04:07:00,
2013-02-18 20:13:00,44.2,30.8,29.85,NNW,335,0.0,0.0,59,0.00,,OVC,0.00,VWS V13.01,2013-02-19 04:13:00,
2013-02-18 20:19:00,44.2,30.8,29.85,West,276,0.0,0.0,59,0.00,,OVC,0.00,VWS V13.01,2013-02-19 04:19:00,
2013-02-18 20:26:00,44.2,30.8,29.85,SE,127,0.0,0.0,59,0.00,,OVC,0.00,VWS V13.01,2013-02-19 04:26:00,
2013-02-18 20:32:00,44.4,30.9,29.85,SSW,209,0.0,0.0,59,0.00,,OVC,0.00,VWS V13.01,2013-02-19 04:32:00,
2013-02-18 20:38:00,44.4,30.9,29.85,SSW,209,0.0,0.0,59,0.00,,OVC,0.00,VWS V13.01,2013-02-19 04:38:00,
2013-02-18 20:45:00,44.4,30.9,29.85,SSW,209,0.0,0.0,59,0.00,,OVC,0.00,VWS V13.01,2013-02-19 04:45:00,
2013-02-18 20:51:00,44.4,30.9,29.85,SSW,209,0.0,0.0,59,0.00,,OVC,0.00,VWS V13.01,2013-02-19 04:51:00,
2013-02-18 20:57:00,44.4,30.9,29.85,SSW,209,0.0,0.0,59,0.00,,OVC,0.00,VWS V13.01,2013-02-19 04:57:00,
2013-02-18 21:00:00,44.4,30.9,29.85,SW,214,0.0,0.0,59,0.00,,OVC,0.00,VWS V13.01,2013-02-19 05:00:00,
2013-02-18 21:01:00,44.2,30.8,29.85,SW,214,0.0,0.0,59,0.00,,OVC,0.00,VWS V13.01,2013-02-19 05:01:00,
2013-02-18 21:05:00,44.2,30.8,29.85,SW,214,0.0,0.0,59,0.00,,OVC,0.00,VWS V13.01,2013-02-19 05:05:00,
2013-02-18 21:11:00,44.2,30.8,29.85,SSW,213,0.0,0.0,59,0.00,,OVC,0.00,VWS V13.01,2013-02-19 05:11:00,
2013-02-18 21:17:00,44.2,30.8,29.85,SW,220,0.0,0.0,59,0.00,,OVC,0.00,VWS V13.01,2013-02-19 05:17:00,
2013-02-18 21:23:00,44.2,30.8,29.85,SW,220,0.0,0.0,59,0.00,,OVC,0.00,VWS V13.01,2013-02-19 05:23:00,
2013-02-18 21:30:00,44.2,30.8,29.85,NE,53,0.0,0.0,59,0.00,,OVC,0.00,VWS V13.01,2013-02-19 05:30:00,
2013-02-18 21:36:00,44.1,30.6,29.85,SSE,153,0.0,0.0,59,0.00,,OVC,0.00,VWS V13.01,2013-02-19 05:36:00,
2013-02-18 21:42:00,44.2,30.8,29.85,East,101,0.0,0.0,59,0.00,,OVC,0.00,VWS V13.01,2013-02-19 05:42:00,
2013-02-18 21:48:00,44.1,30.6,29.85,ESE,113,0.0,0.0,59,0.00,,OVC,0.00,VWS V13.01,2013-02-19 05:48:00,
2013-02-18 21:54:00,44.1,30.6,29.85,ESE,116,0.0,0.0,59,0.00,,OVC,0.00,VWS V13.01,2013-02-19 05:54:00,
2013-02-18 22:00:00,43.9,30.4,29.85,SE,127,0.0,0.0,59,0.00,,OVC,0.00,VWS V13.01,2013-02-19 06:00:00,
2013-02-18 22:06:00,43.9,30.4,29.85,SE,125,0.0,0.0,59,0.00,,OVC,0.00,VWS V13.01,2013-02-19 06:06:00,
2013-02-18 22:13:00,43.7,30.2,29.85,SE,125,0.0,0.0,59,0.00,,OVC,0.00,VWS V13.01,2013-02-19 06:13:00,
2013-02-18 22:19:00,43.7,30.2,29.85,ESE,118,0.0,0.0,59,0.00,,OVC,0.00,VWS V13.01,2013-02-19 06:19:00,
2013-02-18 22:25:00,43.7,30.2,29.85,ESE,118,0.0,0.0,59,0.00,,OVC,0.00,VWS V13.01,2013-02-19 06:25:00,
2013-02-18 22:31:00,43.7,30.2,29.85,North,351,0.0,0.0,59,0.00,,OVC,0.00,VWS V13.01,2013-02-19 06:31:00,
2013-02-18 22:37:00,43.7,30.2,29.85,North,351,0.0,0.0,59,0.00,,OVC,0.00,VWS V13.01,2013-02-19 06:37:00,
2013-02-18 22:43:00,43.7,30.2,29.85,North,351,0.0,0.0,59,0.00,,OVC,0.00,VWS V13.01,2013-02-19 06:43:00,
2013-02-18 22:49:00,43.5,30.1,29.85,West,263,0.0,0.0,59,0.00,,OVC,0.00,VWS V13.01,2013-02-19 06:49:00,
2013-02-18 22:55:00,43.5,30.1,29.85,West,263,0.0,0.0,59,0.00,,OVC,0.00,VWS V13.01,2013-02-19 06:55:00,
2013-02-18 23:01:00,43.3,29.9,29.85,West,266,0.0,0.0,59,0.00,,OVC,0.00,VWS V13.01,2013-02-19 07:01:00,
2013-02-18 23:07:00,43.2,29.7,29.85,West,266,0.0,0.0,59,0.00,,OVC,0.00,VWS V13.01,2013-02-19 07:07:00,
2013-02-18 23:13:00,43.0,29.6,29.85,WSW,258,0.0,0.0,59,0.00,,OVC,0.00,VWS V13.01,2013-02-19 07:13:00,
2013-02-18 23:20:00,43.0,29.6,29.85,East,84,0.0,0.0,59,0.00,,OVC,0.00,VWS V13.01,2013-02-19 07:20:00,
2013-02-18 23:26:00,43.0,29.6,29.85,SSE,162,0.0,0.0,59,0.00,,OVC,0.00,VWS V13.01,2013-02-19 07:26:00,
2013-02-18 23:32:00,43.0,29.6,29.85,South,180,0.0,0.0,59,0.00,,OVC,0.00,VWS V13.01,2013-02-19 07:32:00,
2013-02-18 23:38:00,42.8,29.4,29.85,South,175,0.0,0.0,59,0.00,,OVC,0.00,VWS V13.01,2013-02-19 07:38:00,
2013-02-18 23:44:00,42.6,29.2,29.85,South,191,0.0,0.0,59,0.00,,OVC,0.00,VWS V13.01,2013-02-19 07:44:00,
2013-02-18 23:50:00,42.4,26.3,29.85,SSW,212,0.0,0.0,52,0.00,,OVC,0.00,VWS V13.01,2013-02-19 07:50:00,
2013-02-18 23:56:00,42.4,26.3,29.85,SSE,164,0.0,0.0,52,0.00,,OVC,0.00,VWS V13.01,2013-02-19 07:56:00,